Terminal Aerodrome Forecast
Issued by NWS

Home | Current Version | Previous Version | Text Only | Print | Product List | Glossary Off
Versions: 1 2 3 4 5 6 7 8 9 10 11 12 13 14 15 16 17 18

023
FTUS43 KFGF 062332
TAFBJI
TAF
KBJI 062332Z 0700/0724 28018G27KT 3SM -SN OVC009
     FM071500 28020G30KT 2SM -SN OVC012
     FM072300 30015G25KT 2SM -SN OVC015=

USA.gov is the U.S. government's official web portal to all federal, state and local government web resources and services.